sensor_id;sensor_type;location;lat;lon;timestamp;P1;durP1;ratioP1;P2;durP2;ratioP2
6412;SDS011;3239;48.714;9.472;2023-04-03T00:01:31;3.77;;;1.63;;
6412;SDS011;3239;48.714;9.472;2023-04-03T00:03:57;2.40;;;1.97;;
6412;SDS011;3239;48.714;9.472;2023-04-03T00:06:23;2.17;;;1.77;;
6412;SDS011;3239;48.714;9.472;2023-04-03T00:08:50;3.53;;;1.87;;
6412;SDS011;3239;48.714;9.472;2023-04-03T00:11:16;5.17;;;2.47;;
6412;SDS011;3239;48.714;9.472;2023-04-03T00:13:43;9.60;;;2.10;;
6412;SDS011;3239;48.714;9.472;2023-04-03T00:16:09;3.63;;;1.90;;
6412;SDS011;3239;48.714;9.472;2023-04-03T00:18:37;18.43;;;6.17;;
6412;SDS011;3239;48.714;9.472;2023-04-03T00:21:04;4.50;;;2.10;;
6412;SDS011;3239;48.714;9.472;2023-04-03T00:23:31;3.30;;;2.10;;
6412;SDS011;3239;48.714;9.472;2023-04-03T00:25:57;2.70;;;2.20;;
6412;SDS011;3239;48.714;9.472;2023-04-03T00:28:23;2.53;;;2.10;;
6412;SDS011;3239;48.714;9.472;2023-04-03T00:30:49;2.50;;;2.30;;
6412;SDS011;3239;48.714;9.472;2023-04-03T00:33:16;3.50;;;2.10;;
6412;SDS011;3239;48.714;9.472;2023-04-03T00:35:42;2.17;;;1.90;;
6412;SDS011;3239;48.714;9.472;2023-04-03T00:38:07;2.77;;;2.20;;
6412;SDS011;3239;48.714;9.472;2023-04-03T00:40:36;2.83;;;1.90;;
6412;SDS011;3239;48.714;9.472;2023-04-03T00:43:22;2.30;;;2.00;;
6412;SDS011;3239;48.714;9.472;2023-04-03T00:45:54;3.23;;;2.70;;
6412;SDS011;3239;48.714;9.472;2023-04-03T00:51:08;2.63;;;2.10;;
6412;SDS011;3239;48.714;9.472;2023-04-03T00:53:46;2.77;;;2.03;;
6412;SDS011;3239;48.714;9.472;2023-04-03T00:56:18;4.27;;;2.27;;
6412;SDS011;3239;48.714;9.472;2023-04-03T00:58:49;4.50;;;2.27;;
6412;SDS011;3239;48.714;9.472;2023-04-03T01:01:30;3.50;;;2.10;;
6412;SDS011;3239;48.714;9.472;2023-04-03T01:03:58;5.83;;;2.27;;
6412;SDS011;3239;48.714;9.472;2023-04-03T01:06:26;2.30;;;2.10;;
6412;SDS011;3239;48.714;9.472;2023-04-03T01:08:58;2.17;;;1.83;;
6412;SDS011;3239;48.714;9.472;2023-04-03T01:11:25;4.27;;;2.27;;
6412;SDS011;3239;48.714;9.472;2023-04-03T01:13:52;2.30;;;2.07;;
6412;SDS011;3239;48.714;9.472;2023-04-03T01:16:18;3.07;;;2.10;;
6412;SDS011;3239;48.714;9.472;2023-04-03T01:18:44;2.40;;;2.20;;
6412;SDS011;3239;48.714;9.472;2023-04-03T01:26:58;2.33;;;2.13;;
6412;SDS011;3239;48.714;9.472;2023-04-03T01:29:26;4.60;;;2.37;;
6412;SDS011;3239;48.714;9.472;2023-04-03T01:31:58;3.10;;;2.30;;
6412;SDS011;3239;48.714;9.472;2023-04-03T01:34:26;2.20;;;1.90;;
6412;SDS011;3239;48.714;9.472;2023-04-03T01:36:54;2.53;;;2.27;;
6412;SDS011;3239;48.714;9.472;2023-04-03T01:39:20;2.20;;;2.00;;
6412;SDS011;3239;48.714;9.472;2023-04-03T01:41:46;2.03;;;1.67;;
6412;SDS011;3239;48.714;9.472;2023-04-03T01:44:13;2.50;;;2.10;;
6412;SDS011;3239;48.714;9.472;2023-04-03T01:46:39;2.60;;;1.90;;
6412;SDS011;3239;48.714;9.472;2023-04-03T01:49:07;2.73;;;2.23;;
6412;SDS011;3239;48.714;9.472;2023-04-03T01:51:33;2.37;;;2.10;;
6412;SDS011;3239;48.714;9.472;2023-04-03T01:53:58;5.73;;;2.07;;
6412;SDS011;3239;48.714;9.472;2023-04-03T01:56:24;3.20;;;2.10;;
6412;SDS011;3239;48.714;9.472;2023-04-03T01:58:50;2.60;;;1.90;;
6412;SDS011;3239;48.714;9.472;2023-04-03T02:01:16;1.97;;;1.70;;
6412;SDS011;3239;48.714;9.472;2023-04-03T02:03:42;2.20;;;2.00;;
6412;SDS011;3239;48.714;9.472;2023-04-03T02:06:07;2.30;;;1.50;;
6412;SDS011;3239;48.714;9.472;2023-04-03T02:08:33;4.10;;;2.00;;
6412;SDS011;3239;48.714;9.472;2023-04-03T02:10:59;3.97;;;2.00;;
6412;SDS011;3239;48.714;9.472;2023-04-03T02:13:25;2.10;;;1.87;;
6412;SDS011;3239;48.714;9.472;2023-04-03T02:15:50;3.53;;;2.00;;
6412;SDS011;3239;48.714;9.472;2023-04-03T02:18:16;3.00;;;2.10;;
6412;SDS011;3239;48.714;9.472;2023-04-03T02:20:43;3.47;;;2.23;;
6412;SDS011;3239;48.714;9.472;2023-04-03T02:23:09;2.43;;;2.00;;
6412;SDS011;3239;48.714;9.472;2023-04-03T02:25:34;2.60;;;1.60;;
6412;SDS011;3239;48.714;9.472;2023-04-03T02:28:00;3.60;;;1.90;;
6412;SDS011;3239;48.714;9.472;2023-04-03T02:30:26;2.40;;;1.80;;
6412;SDS011;3239;48.714;9.472;2023-04-03T02:32:52;5.40;;;2.20;;
6412;SDS011;3239;48.714;9.472;2023-04-03T02:35:18;7.70;;;2.27;;
6412;SDS011;3239;48.714;9.472;2023-04-03T02:37:44;3.10;;;1.83;;
6412;SDS011;3239;48.714;9.472;2023-04-03T02:40:10;2.20;;;1.80;;
6412;SDS011;3239;48.714;9.472;2023-04-03T02:42:36;2.03;;;1.50;;
6412;SDS011;3239;48.714;9.472;2023-04-03T02:45:02;5.30;;;2.20;;
6412;SDS011;3239;48.714;9.472;2023-04-03T02:47:29;4.83;;;2.03;;
6412;SDS011;3239;48.714;9.472;2023-04-03T02:49:54;2.03;;;1.70;;
6412;SDS011;3239;48.714;9.472;2023-04-03T02:52:20;2.10;;;1.90;;
6412;SDS011;3239;48.714;9.472;2023-04-03T02:54:46;3.10;;;1.70;;
6412;SDS011;3239;48.714;9.472;2023-04-03T02:57:12;1.93;;;1.40;;
6412;SDS011;3239;48.714;9.472;2023-04-03T02:59:38;2.40;;;1.77;;
6412;SDS011;3239;48.714;9.472;2023-04-03T03:02:06;2.13;;;1.93;;
6412;SDS011;3239;48.714;9.472;2023-04-03T03:04:34;3.20;;;1.67;;
6412;SDS011;3239;48.714;9.472;2023-04-03T03:07:01;2.40;;;1.93;;
6412;SDS011;3239;48.714;9.472;2023-04-03T03:09:27;3.47;;;1.77;;
6412;SDS011;3239;48.714;9.472;2023-04-03T03:11:54;2.30;;;1.77;;
6412;SDS011;3239;48.714;9.472;2023-04-03T03:14:20;2.23;;;1.60;;
6412;SDS011;3239;48.714;9.472;2023-04-03T03:16:46;2.70;;;1.67;;
6412;SDS011;3239;48.714;9.472;2023-04-03T03:19:12;2.97;;;1.70;;
6412;SDS011;3239;48.714;9.472;2023-04-03T03:21:38;2.47;;;1.93;;
6412;SDS011;3239;48.714;9.472;2023-04-03T03:24:03;2.70;;;2.20;;
6412;SDS011;3239;48.714;9.472;2023-04-03T03:26:30;2.57;;;1.90;;
6412;SDS011;3239;48.714;9.472;2023-04-03T03:28:55;1.97;;;1.70;;
6412;SDS011;3239;48.714;9.472;2023-04-03T03:31:21;3.83;;;1.77;;
6412;SDS011;3239;48.714;9.472;2023-04-03T03:33:47;7.23;;;2.00;;
6412;SDS011;3239;48.714;9.472;2023-04-03T03:36:12;4.20;;;2.70;;
6412;SDS011;3239;48.714;9.472;2023-04-03T03:38:38;2.20;;;1.87;;
6412;SDS011;3239;48.714;9.472;2023-04-03T03:41:04;2.03;;;1.60;;
6412;SDS011;3239;48.714;9.472;2023-04-03T03:43:30;2.17;;;1.70;;
6412;SDS011;3239;48.714;9.472;2023-04-03T03:45:56;2.23;;;1.97;;
6412;SDS011;3239;48.714;9.472;2023-04-03T03:48:21;1.57;;;1.30;;
6412;SDS011;3239;48.714;9.472;2023-04-03T03:50:48;2.03;;;1.60;;
6412;SDS011;3239;48.714;9.472;2023-04-03T03:53:14;3.93;;;1.90;;
6412;SDS011;3239;48.714;9.472;2023-04-03T03:55:40;2.57;;;1.97;;
6412;SDS011;3239;48.714;9.472;2023-04-03T03:58:06;2.17;;;1.47;;
6412;SDS011;3239;48.714;9.472;2023-04-03T04:00:32;2.30;;;1.70;;
6412;SDS011;3239;48.714;9.472;2023-04-03T04:02:57;2.20;;;1.77;;
6412;SDS011;3239;48.714;9.472;2023-04-03T04:05:23;3.30;;;1.60;;
6412;SDS011;3239;48.714;9.472;2023-04-03T04:07:49;3.80;;;2.10;;
6412;SDS011;3239;48.714;9.472;2023-04-03T04:10:15;2.23;;;1.67;;
6412;SDS011;3239;48.714;9.472;2023-04-03T04:12:41;2.03;;;1.60;;
6412;SDS011;3239;48.714;9.472;2023-04-03T04:15:07;2.53;;;1.90;;
6412;SDS011;3239;48.714;9.472;2023-04-03T04:17:34;2.97;;;1.70;;
6412;SDS011;3239;48.714;9.472;2023-04-03T04:20:00;2.13;;;1.87;;
6412;SDS011;3239;48.714;9.472;2023-04-03T04:22:27;2.90;;;2.27;;
6412;SDS011;3239;48.714;9.472;2023-04-03T04:24:53;3.30;;;1.80;;
6412;SDS011;3239;48.714;9.472;2023-04-03T04:27:19;2.20;;;1.80;;
6412;SDS011;3239;48.714;9.472;2023-04-03T04:29:45;2.20;;;1.90;;
6412;SDS011;3239;48.714;9.472;2023-04-03T04:32:10;7.20;;;2.33;;
6412;SDS011;3239;48.714;9.472;2023-04-03T04:34:36;2.57;;;1.17;;
6412;SDS011;3239;48.714;9.472;2023-04-03T04:37:02;1.80;;;1.50;;
6412;SDS011;3239;48.714;9.472;2023-04-03T04:39:28;1.90;;;1.60;;
6412;SDS011;3239;48.714;9.472;2023-04-03T04:41:54;5.60;;;1.33;;
6412;SDS011;3239;48.714;9.472;2023-04-03T04:44:20;2.93;;;1.67;;
6412;SDS011;3239;48.714;9.472;2023-04-03T04:46:45;1.57;;;1.27;;
6412;SDS011;3239;48.714;9.472;2023-04-03T04:49:11;4.00;;;2.97;;
6412;SDS011;3239;48.714;9.472;2023-04-03T04:51:38;7.10;;;4.03;;
6412;SDS011;3239;48.714;9.472;2023-04-03T04:54:04;3.60;;;2.50;;
6412;SDS011;3239;48.714;9.472;2023-04-03T04:56:29;2.50;;;1.53;;
6412;SDS011;3239;48.714;9.472;2023-04-03T04:58:55;2.20;;;1.50;;
6412;SDS011;3239;48.714;9.472;2023-04-03T05:01:21;2.37;;;1.50;;
6412;SDS011;3239;48.714;9.472;2023-04-03T05:03:46;2.57;;;1.50;;
6412;SDS011;3239;48.714;9.472;2023-04-03T05:06:12;2.43;;;1.50;;
6412;SDS011;3239;48.714;9.472;2023-04-03T05:08:38;2.73;;;1.60;;
6412;SDS011;3239;48.714;9.472;2023-04-03T05:11:04;3.30;;;1.73;;
6412;SDS011;3239;48.714;9.472;2023-04-03T05:13:30;2.80;;;1.30;;
6412;SDS011;3239;48.714;9.472;2023-04-03T05:15:56;1.87;;;1.40;;
6412;SDS011;3239;48.714;9.472;2023-04-03T05:18:21;2.70;;;1.50;;
6412;SDS011;3239;48.714;9.472;2023-04-03T05:20:50;2.83;;;1.43;;
6412;SDS011;3239;48.714;9.472;2023-04-03T05:23:16;2.00;;;1.40;;
6412;SDS011;3239;48.714;9.472;2023-04-03T05:25:43;1.70;;;1.17;;
6412;SDS011;3239;48.714;9.472;2023-04-03T05:28:10;4.10;;;1.33;;
6412;SDS011;3239;48.714;9.472;2023-04-03T05:30:36;2.40;;;1.30;;
6412;SDS011;3239;48.714;9.472;2023-04-03T05:33:02;3.03;;;1.63;;
6412;SDS011;3239;48.714;9.472;2023-04-03T05:35:28;4.50;;;1.60;;
6412;SDS011;3239;48.714;9.472;2023-04-03T05:37:54;5.80;;;1.50;;
6412;SDS011;3239;48.714;9.472;2023-04-03T05:40:20;2.50;;;1.50;;
6412;SDS011;3239;48.714;9.472;2023-04-03T05:42:46;2.23;;;1.40;;
6412;SDS011;3239;48.714;9.472;2023-04-03T05:45:11;2.40;;;1.50;;
6412;SDS011;3239;48.714;9.472;2023-04-03T05:47:37;2.70;;;1.90;;
6412;SDS011;3239;48.714;9.472;2023-04-03T05:50:03;3.37;;;1.93;;
6412;SDS011;3239;48.714;9.472;2023-04-03T05:52:32;2.40;;;1.90;;
6412;SDS011;3239;48.714;9.472;2023-04-03T05:55:01;2.63;;;1.53;;
6412;SDS011;3239;48.714;9.472;2023-04-03T05:57:27;1.63;;;1.30;;
6412;SDS011;3239;48.714;9.472;2023-04-03T05:59:53;2.53;;;2.33;;
6412;SDS011;3239;48.714;9.472;2023-04-03T06:02:20;2.20;;;1.40;;
6412;SDS011;3239;48.714;9.472;2023-04-03T06:04:48;2.53;;;1.47;;
6412;SDS011;3239;48.714;9.472;2023-04-03T06:07:18;5.20;;;2.47;;
6412;SDS011;3239;48.714;9.472;2023-04-03T06:09:48;2.97;;;1.30;;
6412;SDS011;3239;48.714;9.472;2023-04-03T06:12:16;1.60;;;1.40;;
6412;SDS011;3239;48.714;9.472;2023-04-03T06:14:43;1.87;;;1.23;;
6412;SDS011;3239;48.714;9.472;2023-04-03T06:17:09;2.90;;;1.70;;
6412;SDS011;3239;48.714;9.472;2023-04-03T06:19:35;2.20;;;1.33;;
6412;SDS011;3239;48.714;9.472;2023-04-03T06:22:01;3.47;;;1.10;;
6412;SDS011;3239;48.714;9.472;2023-04-03T06:24:28;1.80;;;1.20;;
6412;SDS011;3239;48.714;9.472;2023-04-03T06:26:55;2.27;;;1.83;;
6412;SDS011;3239;48.714;9.472;2023-04-03T06:29:20;5.60;;;1.93;;
6412;SDS011;3239;48.714;9.472;2023-04-03T06:31:47;4.63;;;2.83;;
6412;SDS011;3239;48.714;9.472;2023-04-03T06:34:13;5.27;;;3.40;;
6412;SDS011;3239;48.714;9.472;2023-04-03T06:36:40;7.00;;;3.53;;
6412;SDS011;3239;48.714;9.472;2023-04-03T06:39:07;6.60;;;2.63;;
6412;SDS011;3239;48.714;9.472;2023-04-03T06:41:37;4.50;;;1.60;;
6412;SDS011;3239;48.714;9.472;2023-04-03T06:44:03;2.30;;;1.60;;
6412;SDS011;3239;48.714;9.472;2023-04-03T06:46:29;2.87;;;1.70;;
6412;SDS011;3239;48.714;9.472;2023-04-03T06:48:55;2.33;;;1.20;;
6412;SDS011;3239;48.714;9.472;2023-04-03T06:51:23;2.90;;;1.70;;
6412;SDS011;3239;48.714;9.472;2023-04-03T06:53:55;1.90;;;1.60;;
6412;SDS011;3239;48.714;9.472;2023-04-03T06:56:23;2.07;;;1.40;;
6412;SDS011;3239;48.714;9.472;2023-04-03T06:58:51;2.53;;;1.50;;
6412;SDS011;3239;48.714;9.472;2023-04-03T07:01:19;4.53;;;1.40;;
6412;SDS011;3239;48.714;9.472;2023-04-03T07:03:46;4.70;;;1.70;;
6412;SDS011;3239;48.714;9.472;2023-04-03T07:06:13;2.07;;;1.23;;
6412;SDS011;3239;48.714;9.472;2023-04-03T07:08:41;2.10;;;1.60;;
6412;SDS011;3239;48.714;9.472;2023-04-03T07:11:08;2.67;;;1.30;;
6412;SDS011;3239;48.714;9.472;2023-04-03T07:13:35;3.10;;;1.80;;
6412;SDS011;3239;48.714;9.472;2023-04-03T07:16:01;7.43;;;1.83;;
6412;SDS011;3239;48.714;9.472;2023-04-03T07:18:28;2.60;;;1.37;;
6412;SDS011;3239;48.714;9.472;2023-04-03T07:20:55;3.00;;;1.70;;
6412;SDS011;3239;48.714;9.472;2023-04-03T07:23:20;3.07;;;1.93;;
6412;SDS011;3239;48.714;9.472;2023-04-03T07:25:47;6.40;;;2.33;;
6412;SDS011;3239;48.714;9.472;2023-04-03T07:28:14;3.23;;;2.10;;
6412;SDS011;3239;48.714;9.472;2023-04-03T07:30:42;2.50;;;1.67;;
6412;SDS011;3239;48.714;9.472;2023-04-03T07:33:17;3.83;;;1.53;;
6412;SDS011;3239;48.714;9.472;2023-04-03T07:35:45;3.47;;;1.60;;
6412;SDS011;3239;48.714;9.472;2023-04-03T07:38:12;2.10;;;1.57;;
6412;SDS011;3239;48.714;9.472;2023-04-03T07:40:38;4.23;;;1.63;;
6412;SDS011;3239;48.714;9.472;2023-04-03T07:43:04;1.90;;;1.27;;
6412;SDS011;3239;48.714;9.472;2023-04-03T07:45:31;5.20;;;1.30;;
6412;SDS011;3239;48.714;9.472;2023-04-03T07:47:59;2.33;;;1.30;;
6412;SDS011;3239;48.714;9.472;2023-04-03T07:50:25;2.37;;;1.27;;
6412;SDS011;3239;48.714;9.472;2023-04-03T07:52:52;2.20;;;1.30;;
6412;SDS011;3239;48.714;9.472;2023-04-03T07:55:19;2.40;;;1.40;;
6412;SDS011;3239;48.714;9.472;2023-04-03T07:57:45;2.07;;;1.63;;
6412;SDS011;3239;48.714;9.472;2023-04-03T08:00:11;2.93;;;1.50;;
6412;SDS011;3239;48.714;9.472;2023-04-03T08:02:38;5.67;;;1.90;;
6412;SDS011;3239;48.714;9.472;2023-04-03T08:05:04;2.80;;;1.47;;
6412;SDS011;3239;48.714;9.472;2023-04-03T08:07:30;3.60;;;1.70;;
6412;SDS011;3239;48.714;9.472;2023-04-03T08:09:56;4.87;;;1.63;;
6412;SDS011;3239;48.714;9.472;2023-04-03T08:12:22;6.10;;;1.47;;
6412;SDS011;3239;48.714;9.472;2023-04-03T08:14:47;3.53;;;1.20;;
6412;SDS011;3239;48.714;9.472;2023-04-03T08:17:13;2.47;;;1.30;;
6412;SDS011;3239;48.714;9.472;2023-04-03T08:19:40;4.60;;;1.60;;
6412;SDS011;3239;48.714;9.472;2023-04-03T08:22:06;5.00;;;1.60;;
6412;SDS011;3239;48.714;9.472;2023-04-03T08:24:35;4.07;;;1.57;;
6412;SDS011;3239;48.714;9.472;2023-04-03T08:27:00;2.70;;;1.50;;
6412;SDS011;3239;48.714;9.472;2023-04-03T08:29:26;3.20;;;1.53;;
6412;SDS011;3239;48.714;9.472;2023-04-03T08:31:52;2.10;;;1.30;;
6412;SDS011;3239;48.714;9.472;2023-04-03T08:34:19;2.97;;;1.40;;
6412;SDS011;3239;48.714;9.472;2023-04-03T08:36:45;2.00;;;1.57;;
6412;SDS011;3239;48.714;9.472;2023-04-03T08:39:11;2.50;;;1.40;;
6412;SDS011;3239;48.714;9.472;2023-04-03T08:44:25;4.23;;;1.50;;
6412;SDS011;3239;48.714;9.472;2023-04-03T08:49:55;2.70;;;1.53;;
6412;SDS011;3239;48.714;9.472;2023-04-03T08:55:52;3.60;;;1.77;;
6412;SDS011;3239;48.714;9.472;2023-04-03T08:58:06;2.63;;;1.50;;
6412;SDS011;3239;48.714;9.472;2023-04-03T09:00:43;4.03;;;1.40;;
6412;SDS011;3239;48.714;9.472;2023-04-03T09:03:20;4.30;;;1.73;;
6412;SDS011;3239;48.714;9.472;2023-04-03T09:06:02;4.80;;;1.47;;
6412;SDS011;3239;48.714;9.472;2023-04-03T09:08:53;3.33;;;1.60;;
6412;SDS011;3239;48.714;9.472;2023-04-03T09:14:53;2.80;;;1.70;;
6412;SDS011;3239;48.714;9.472;2023-04-03T09:23:23;2.67;;;1.50;;
6412;SDS011;3239;48.714;9.472;2023-04-03T09:25:54;1.57;;;1.13;;
6412;SDS011;3239;48.714;9.472;2023-04-03T09:28:28;1.60;;;1.20;;
6412;SDS011;3239;48.714;9.472;2023-04-03T09:30:58;3.00;;;1.63;;
6412;SDS011;3239;48.714;9.472;2023-04-03T09:33:25;7.13;;;1.20;;
6412;SDS011;3239;48.714;9.472;2023-04-03T09:35:53;2.70;;;1.50;;
6412;SDS011;3239;48.714;9.472;2023-04-03T09:38:20;3.40;;;1.33;;
6412;SDS011;3239;48.714;9.472;2023-04-03T09:40:48;4.30;;;1.33;;
6412;SDS011;3239;48.714;9.472;2023-04-03T09:43:32;2.50;;;1.13;;
6412;SDS011;3239;48.714;9.472;2023-04-03T09:49:00;5.73;;;1.27;;
6412;SDS011;3239;48.714;9.472;2023-04-03T09:51:29;1.97;;;1.53;;
6412;SDS011;3239;48.714;9.472;2023-04-03T09:53:56;2.70;;;1.30;;
6412;SDS011;3239;48.714;9.472;2023-04-03T09:56:24;2.70;;;1.20;;
6412;SDS011;3239;48.714;9.472;2023-04-03T10:01:29;2.13;;;1.27;;
6412;SDS011;3239;48.714;9.472;2023-04-03T10:06:37;3.73;;;1.50;;
6412;SDS011;3239;48.714;9.472;2023-04-03T10:09:21;1.53;;;1.10;;
6412;SDS011;3239;48.714;9.472;2023-04-03T10:14:23;1.67;;;1.20;;
6412;SDS011;3239;48.714;9.472;2023-04-03T10:19:56;1.80;;;1.27;;
6412;SDS011;3239;48.714;9.472;2023-04-03T10:23:18;9.17;;;1.70;;
6412;SDS011;3239;48.714;9.472;2023-04-03T10:26:12;1.50;;;0.90;;
6412;SDS011;3239;48.714;9.472;2023-04-03T10:34:44;3.70;;;1.50;;
6412;SDS011;3239;48.714;9.472;2023-04-03T10:37:18;2.10;;;1.10;;
6412;SDS011;3239;48.714;9.472;2023-04-03T10:42:50;2.67;;;1.37;;
6412;SDS011;3239;48.714;9.472;2023-04-03T10:45:58;2.60;;;1.53;;
6412;SDS011;3239;48.714;9.472;2023-04-03T10:51:29;2.67;;;1.50;;
6412;SDS011;3239;48.714;9.472;2023-04-03T10:54:26;3.23;;;1.00;;
6412;SDS011;3239;48.714;9.472;2023-04-03T10:57:01;2.63;;;1.17;;
6412;SDS011;3239;48.714;9.472;2023-04-03T10:59:51;4.50;;;1.87;;
6412;SDS011;3239;48.714;9.472;2023-04-03T11:02:35;2.90;;;1.27;;
6412;SDS011;3239;48.714;9.472;2023-04-03T11:05:13;3.10;;;1.30;;
6412;SDS011;3239;48.714;9.472;2023-04-03T11:07:51;2.20;;;0.90;;
6412;SDS011;3239;48.714;9.472;2023-04-03T11:10:25;12.00;;;1.00;;
6412;SDS011;3239;48.714;9.472;2023-04-03T11:13:08;1.70;;;1.30;;
6412;SDS011;3239;48.714;9.472;2023-04-03T11:15:50;3.53;;;1.07;;
6412;SDS011;3239;48.714;9.472;2023-04-03T11:18:21;2.97;;;1.00;;
6412;SDS011;3239;48.714;9.472;2023-04-03T11:21:14;1.73;;;1.00;;
6412;SDS011;3239;48.714;9.472;2023-04-03T11:24:05;3.00;;;1.30;;
6412;SDS011;3239;48.714;9.472;2023-04-03T11:26:45;2.20;;;0.97;;
6412;SDS011;3239;48.714;9.472;2023-04-03T11:29:14;2.00;;;1.03;;
6412;SDS011;3239;48.714;9.472;2023-04-03T11:34:57;2.00;;;1.00;;
6412;SDS011;3239;48.714;9.472;2023-04-03T11:37:39;1.83;;;1.10;;
6412;SDS011;3239;48.714;9.472;2023-04-03T11:45:56;1.90;;;1.20;;
6412;SDS011;3239;48.714;9.472;2023-04-03T11:50:57;8.90;;;4.60;;
6412;SDS011;3239;48.714;9.472;2023-04-03T11:55:56;4.80;;;2.53;;
6412;SDS011;3239;48.714;9.472;2023-04-03T11:58:28;5.73;;;1.43;;
6412;SDS011;3239;48.714;9.472;2023-04-03T12:01:00;2.43;;;1.60;;
6412;SDS011;3239;48.714;9.472;2023-04-03T12:16:07;3.50;;;1.03;;
6412;SDS011;3239;48.714;9.472;2023-04-03T12:47:04;5.60;;;1.27;;
6412;SDS011;3239;48.714;9.472;2023-04-03T12:49:59;1.80;;;1.00;;
6412;SDS011;3239;48.714;9.472;2023-04-03T12:52:35;2.60;;;1.33;;
6412;SDS011;3239;48.714;9.472;2023-04-03T12:55:08;1.60;;;1.30;;
6412;SDS011;3239;48.714;9.472;2023-04-03T12:57:45;2.17;;;1.00;;
6412;SDS011;3239;48.714;9.472;2023-04-03T13:02:55;1.60;;;1.10;;
6412;SDS011;3239;48.714;9.472;2023-04-03T13:05:22;3.17;;;1.43;;
6412;SDS011;3239;48.714;9.472;2023-04-03T13:07:49;2.03;;;0.90;;
6412;SDS011;3239;48.714;9.472;2023-04-03T13:10:22;1.60;;;1.33;;
6412;SDS011;3239;48.714;9.472;2023-04-03T13:12:49;2.10;;;1.10;;
6412;SDS011;3239;48.714;9.472;2023-04-03T13:15:26;3.10;;;1.30;;
6412;SDS011;3239;48.714;9.472;2023-04-03T13:17:55;4.67;;;1.00;;
6412;SDS011;3239;48.714;9.472;2023-04-03T13:20:26;2.90;;;1.30;;
6412;SDS011;3239;48.714;9.472;2023-04-03T13:22:59;2.20;;;1.10;;
6412;SDS011;3239;48.714;9.472;2023-04-03T13:25:31;9.40;;;1.40;;
6412;SDS011;3239;48.714;9.472;2023-04-03T13:28:02;2.33;;;1.27;;
6412;SDS011;3239;48.714;9.472;2023-04-03T13:30:32;1.70;;;1.10;;
6412;SDS011;3239;48.714;9.472;2023-04-03T13:33:04;4.50;;;1.97;;
6412;SDS011;3239;48.714;9.472;2023-04-03T13:35:45;1.50;;;1.23;;
6412;SDS011;3239;48.714;9.472;2023-04-03T13:40:54;2.60;;;1.07;;
6412;SDS011;3239;48.714;9.472;2023-04-03T13:43:27;2.43;;;1.20;;
6412;SDS011;3239;48.714;9.472;2023-04-03T13:48:45;1.87;;;0.80;;
6412;SDS011;3239;48.714;9.472;2023-04-03T13:51:27;2.00;;;1.37;;
6412;SDS011;3239;48.714;9.472;2023-04-03T13:53:59;1.60;;;1.00;;
6412;SDS011;3239;48.714;9.472;2023-04-03T13:56:27;4.03;;;1.10;;
6412;SDS011;3239;48.714;9.472;2023-04-03T14:04:45;2.07;;;0.90;;
6412;SDS011;3239;48.714;9.472;2023-04-03T14:07:23;1.20;;;0.70;;
6412;SDS011;3239;48.714;9.472;2023-04-03T14:09:50;3.93;;;1.20;;
6412;SDS011;3239;48.714;9.472;2023-04-03T14:12:18;1.83;;;1.00;;
6412;SDS011;3239;48.714;9.472;2023-04-03T14:14:50;1.33;;;0.93;;
6412;SDS011;3239;48.714;9.472;2023-04-03T14:17:17;1.97;;;0.93;;
6412;SDS011;3239;48.714;9.472;2023-04-03T14:19:50;2.50;;;0.97;;
6412;SDS011;3239;48.714;9.472;2023-04-03T14:22:19;1.90;;;1.30;;
6412;SDS011;3239;48.714;9.472;2023-04-03T14:24:57;4.20;;;1.40;;
6412;SDS011;3239;48.714;9.472;2023-04-03T14:27:25;2.00;;;0.90;;
6412;SDS011;3239;48.714;9.472;2023-04-03T14:29:55;3.03;;;1.40;;
6412;SDS011;3239;48.714;9.472;2023-04-03T14:32:24;1.97;;;1.10;;
6412;SDS011;3239;48.714;9.472;2023-04-03T14:34:51;4.00;;;1.30;;
6412;SDS011;3239;48.714;9.472;2023-04-03T14:37:19;2.73;;;1.30;;
6412;SDS011;3239;48.714;9.472;2023-04-03T14:39:48;2.00;;;1.40;;
6412;SDS011;3239;48.714;9.472;2023-04-03T14:42:23;1.77;;;1.07;;
6412;SDS011;3239;48.714;9.472;2023-04-03T14:44:58;3.67;;;1.37;;
6412;SDS011;3239;48.714;9.472;2023-04-03T14:47:28;3.23;;;1.40;;
6412;SDS011;3239;48.714;9.472;2023-04-03T14:49:54;3.70;;;1.30;;
6412;SDS011;3239;48.714;9.472;2023-04-03T14:52:22;3.90;;;1.30;;
6412;SDS011;3239;48.714;9.472;2023-04-03T14:54:56;3.00;;;1.27;;
6412;SDS011;3239;48.714;9.472;2023-04-03T14:57:24;3.00;;;1.13;;
6412;SDS011;3239;48.714;9.472;2023-04-03T14:59:52;3.17;;;1.20;;
6412;SDS011;3239;48.714;9.472;2023-04-03T15:02:33;2.07;;;0.83;;
6412;SDS011;3239;48.714;9.472;2023-04-03T15:05:02;1.80;;;1.07;;
6412;SDS011;3239;48.714;9.472;2023-04-03T15:07:35;1.53;;;0.80;;
6412;SDS011;3239;48.714;9.472;2023-04-03T15:12:39;1.50;;;0.83;;
6412;SDS011;3239;48.714;9.472;2023-04-03T15:15:05;3.70;;;1.07;;
6412;SDS011;3239;48.714;9.472;2023-04-03T15:17:31;1.40;;;0.90;;
6412;SDS011;3239;48.714;9.472;2023-04-03T15:19:58;2.50;;;1.23;;
6412;SDS011;3239;48.714;9.472;2023-04-03T15:22:24;2.43;;;1.03;;
6412;SDS011;3239;48.714;9.472;2023-04-03T15:24:50;3.17;;;1.10;;
6412;SDS011;3239;48.714;9.472;2023-04-03T15:27:16;5.20;;;1.30;;
6412;SDS011;3239;48.714;9.472;2023-04-03T15:29:42;2.93;;;1.50;;
6412;SDS011;3239;48.714;9.472;2023-04-03T15:32:09;2.40;;;1.10;;
6412;SDS011;3239;48.714;9.472;2023-04-03T15:34:36;4.37;;;1.70;;
6412;SDS011;3239;48.714;9.472;2023-04-03T15:37:02;3.17;;;2.07;;
6412;SDS011;3239;48.714;9.472;2023-04-03T15:39:28;3.80;;;2.20;;
6412;SDS011;3239;48.714;9.472;2023-04-03T15:41:54;3.27;;;1.50;;
6412;SDS011;3239;48.714;9.472;2023-04-03T15:44:20;2.40;;;1.50;;
6412;SDS011;3239;48.714;9.472;2023-04-03T15:46:46;2.40;;;1.50;;
6412;SDS011;3239;48.714;9.472;2023-04-03T15:49:16;4.70;;;2.63;;
6412;SDS011;3239;48.714;9.472;2023-04-03T15:51:44;3.63;;;1.10;;
6412;SDS011;3239;48.714;9.472;2023-04-03T15:54:10;1.67;;;1.03;;
6412;SDS011;3239;48.714;9.472;2023-04-03T15:56:36;2.23;;;1.10;;
6412;SDS011;3239;48.714;9.472;2023-04-03T15:59:02;4.20;;;1.40;;
6412;SDS011;3239;48.714;9.472;2023-04-03T16:01:28;2.10;;;1.00;;
6412;SDS011;3239;48.714;9.472;2023-04-03T16:03:54;2.07;;;1.07;;
6412;SDS011;3239;48.714;9.472;2023-04-03T16:06:20;2.53;;;1.70;;
6412;SDS011;3239;48.714;9.472;2023-04-03T16:08:46;1.83;;;1.30;;
6412;SDS011;3239;48.714;9.472;2023-04-03T16:11:14;2.93;;;1.90;;
6412;SDS011;3239;48.714;9.472;2023-04-03T16:13:40;3.33;;;1.50;;
6412;SDS011;3239;48.714;9.472;2023-04-03T16:16:07;2.70;;;1.63;;
6412;SDS011;3239;48.714;9.472;2023-04-03T16:18:33;1.87;;;0.80;;
6412;SDS011;3239;48.714;9.472;2023-04-03T16:21:00;2.03;;;1.10;;
6412;SDS011;3239;48.714;9.472;2023-04-03T16:23:26;1.87;;;1.13;;
6412;SDS011;3239;48.714;9.472;2023-04-03T16:25:52;2.33;;;1.13;;
6412;SDS011;3239;48.714;9.472;2023-04-03T16:28:17;3.30;;;1.40;;
6412;SDS011;3239;48.714;9.472;2023-04-03T16:30:44;2.10;;;0.90;;
6412;SDS011;3239;48.714;9.472;2023-04-03T16:33:12;1.77;;;1.00;;
6412;SDS011;3239;48.714;9.472;2023-04-03T16:35:38;3.97;;;1.47;;
6412;SDS011;3239;48.714;9.472;2023-04-03T16:38:04;2.70;;;1.80;;
6412;SDS011;3239;48.714;9.472;2023-04-03T16:40:30;2.33;;;1.70;;
6412;SDS011;3239;48.714;9.472;2023-04-03T16:42:56;4.60;;;1.20;;
6412;SDS011;3239;48.714;9.472;2023-04-03T16:45:22;2.33;;;0.97;;
6412;SDS011;3239;48.714;9.472;2023-04-03T16:47:47;3.30;;;1.40;;
6412;SDS011;3239;48.714;9.472;2023-04-03T16:50:13;3.53;;;1.17;;
6412;SDS011;3239;48.714;9.472;2023-04-03T16:52:39;2.00;;;1.80;;
6412;SDS011;3239;48.714;9.472;2023-04-03T16:55:06;3.20;;;1.30;;
6412;SDS011;3239;48.714;9.472;2023-04-03T16:57:33;8.50;;;4.43;;
6412;SDS011;3239;48.714;9.472;2023-04-03T16:59:58;9.80;;;5.80;;
6412;SDS011;3239;48.714;9.472;2023-04-03T17:02:24;6.07;;;3.30;;
6412;SDS011;3239;48.714;9.472;2023-04-03T17:04:51;5.50;;;3.80;;
6412;SDS011;3239;48.714;9.472;2023-04-03T17:07:22;8.93;;;4.73;;
6412;SDS011;3239;48.714;9.472;2023-04-03T17:09:50;5.30;;;3.80;;
6412;SDS011;3239;48.714;9.472;2023-04-03T17:12:18;19.43;;;10.20;;
6412;SDS011;3239;48.714;9.472;2023-04-03T17:14:45;11.40;;;6.30;;
6412;SDS011;3239;48.714;9.472;2023-04-03T17:17:12;8.23;;;5.73;;
6412;SDS011;3239;48.714;9.472;2023-04-03T17:19:39;2.40;;;2.10;;
6412;SDS011;3239;48.714;9.472;2023-04-03T17:22:07;2.70;;;1.50;;
6412;SDS011;3239;48.714;9.472;2023-04-03T17:24:33;2.83;;;2.00;;
6412;SDS011;3239;48.714;9.472;2023-04-03T17:27:00;4.30;;;2.90;;
6412;SDS011;3239;48.714;9.472;2023-04-03T17:29:26;2.97;;;1.87;;